Time;durP1;ratioP1;P1;durP2;ratioP2;P2;SDS_P1;SDS_P2;PMS_P1;PMS_P2;Temp;Humidity;BMP_temperature;BMP_pressure;BME280_temperature;BME280_humidity;BME280_pressure;Samples;Min_cycle;Max_cycle;Signal;HPM_P1;HPM_P2
2022/03/08 00:01:03;;;;;;;2.73;2.53;;;;;;;-145.14;100.00;70583.66;4994554;28;20193;-71
2022/03/08 00:03:28;;;;;;;5.07;2.30;;;;;;;-145.14;100.00;70583.66;4992277;28;20196;-71
2022/03/08 00:05:55;;;;;;;4.30;2.53;;;;;;;-145.14;100.00;70583.66;4991861;28;21475;-71
2022/03/08 00:08:21;;;;;;;4.10;2.50;;;;;;;-145.14;100.00;70583.66;4994087;28;20545;-71
2022/03/08 00:10:49;;;;;;;4.67;2.30;;;;;;;-145.14;100.00;70583.66;4988788;28;20475;-71
2022/03/08 00:13:14;;;;;;;3.97;2.30;;;;;;;-145.14;100.00;70583.66;4997678;28;20255;-71
2022/03/08 00:15:40;;;;;;;4.50;2.90;;;;;;;-145.14;100.00;70583.66;4993403;28;20439;-71
2022/03/08 00:18:06;;;;;;;2.43;2.23;;;;;;;-145.14;100.00;70583.66;4994824;28;20311;-71
2022/03/08 00:20:31;;;;;;;2.50;2.13;;;;;;;-145.14;100.00;70583.66;4995276;28;20205;-71
2022/03/08 00:22:58;;;;;;;2.50;2.30;;;;;;;-145.14;100.00;70583.66;4995263;28;20478;-71
2022/03/08 00:25:23;;;;;;;2.90;2.27;;;;;;;-145.14;100.00;70583.66;4989143;28;20197;-71
2022/03/08 00:27:49;;;;;;;2.77;2.30;;;;;;;-145.14;100.00;70583.66;4990367;28;20444;-71
2022/03/08 00:30:17;;;;;;;2.83;2.23;;;;;;;-145.14;100.00;70583.66;4987097;28;20304;-71
2022/03/08 00:32:43;;;;;;;4.57;2.10;;;;;;;-145.14;100.00;70583.66;4994103;28;20197;-71
2022/03/08 00:35:09;;;;;;;1.73;1.63;;;;;;;-145.14;100.00;70583.66;4991996;28;20439;-71
2022/03/08 00:37:35;;;;;;;2.70;2.10;;;;;;;-145.14;100.00;70583.66;4990317;28;20523;-71
2022/03/08 00:40:04;;;;;;;3.00;2.10;;;;;;;-145.14;100.00;70583.66;4994505;28;20474;-71
2022/03/08 00:42:30;;;;;;;2.07;1.87;;;;;;;-145.14;100.00;70583.66;4995441;28;20464;-71
2022/03/08 00:44:55;;;;;;;3.40;1.97;;;;;;;-145.14;100.00;70583.66;4994809;28;20445;-71
2022/03/08 00:47:21;;;;;;;2.40;2.20;;;;;;;-145.14;100.00;70583.66;4989818;28;20868;-71
2022/03/08 00:49:46;;;;;;;3.23;2.60;;;;;;;-145.14;100.00;70583.66;4991298;28;20696;-71
2022/03/08 00:52:12;;;;;;;2.70;2.20;;;;;;;-145.14;100.00;70583.66;4993999;28;20269;-71
2022/03/08 00:54:37;;;;;;;2.20;2.00;;;;;;;-145.14;100.00;70583.66;4995592;28;20321;-71
2022/03/08 00:57:05;;;;;;;3.03;2.10;;;;;;;-145.14;100.00;70583.66;4995780;28;20185;-71
2022/03/08 00:59:31;;;;;;;3.33;1.97;;;;;;;-145.14;100.00;70583.66;4990303;28;20214;-71
2022/03/08 01:01:57;;;;;;;2.20;2.00;;;;;;;-145.14;100.00;70583.66;4995049;28;20471;-71
2022/03/08 01:04:22;;;;;;;2.40;1.97;;;;;;;-145.14;100.00;70583.66;4994992;28;20932;-71
2022/03/08 01:06:50;;;;;;;3.80;2.33;;;;;;;-145.14;100.00;70583.66;4990888;28;20209;-71
2022/03/08 01:09:15;;;;;;;2.70;2.43;;;;;;;-145.14;100.00;70583.66;4994982;28;20204;-71
2022/03/08 01:11:42;;;;;;;3.00;2.30;;;;;;;-145.14;100.00;70583.66;4995559;28;20449;-71
2022/03/08 01:14:08;;;;;;;4.70;2.23;;;;;;;-145.14;100.00;70583.66;4991486;28;20685;-71
2022/03/08 01:16:35;;;;;;;2.43;1.83;;;;;;;-145.14;100.00;70583.66;4997416;28;20535;-71
2022/03/08 01:19:02;;;;;;;2.20;2.00;;;;;;;-145.14;100.00;70583.66;4991221;28;21105;-70
2022/03/08 01:21:27;;;;;;;3.00;2.30;;;;;;;-145.14;100.00;70583.66;4993718;28;20474;-71
2022/03/08 01:23:52;;;;;;;3.20;2.40;;;;;;;-145.14;100.00;70583.66;4999917;28;20439;-71
2022/03/08 01:26:18;;;;;;;2.30;2.10;;;;;;;-145.14;100.00;70583.66;4992670;28;20197;-71
2022/03/08 01:28:45;;;;;;;1.97;1.70;;;;;;;-145.14;100.00;70583.66;4988545;28;20950;-70
2022/03/08 01:31:10;;;;;;;3.07;2.80;;;;;;;-145.14;100.00;70583.66;4988461;28;20436;-71
2022/03/08 01:33:36;;;;;;;2.90;2.40;;;;;;;-145.14;100.00;70583.66;4993143;28;20216;-71
2022/03/08 01:36:02;;;;;;;2.50;2.13;;;;;;;-145.14;100.00;70583.66;4992193;28;20981;-71
2022/03/08 01:38:27;;;;;;;3.20;2.17;;;;;;;-145.14;100.00;70583.66;4988619;28;20224;-71
2022/03/08 01:40:53;;;;;;;3.00;2.30;;;;;;;-145.14;100.00;70583.66;4997359;28;20496;-71
2022/03/08 01:43:19;;;;;;;3.73;2.40;;;;;;;-145.14;100.00;70583.66;4989454;28;20246;-71
2022/03/08 01:45:44;;;;;;;2.60;2.40;;;;;;;-145.14;100.00;70583.66;4991440;28;20284;-71
2022/03/08 01:48:09;;;;;;;3.13;2.57;;;;;;;-145.14;100.00;70583.66;4992569;28;20271;-71
2022/03/08 01:50:35;;;;;;;4.67;2.27;;;;;;;-145.14;100.00;70583.66;4987096;28;20259;-71
2022/03/08 01:53:01;;;;;;;2.53;2.33;;;;;;;-145.14;100.00;70583.66;4989466;28;20811;-71
2022/03/08 01:55:27;;;;;;;2.83;2.20;;;;;;;-145.14;100.00;70583.66;4993325;28;20249;-71
2022/03/08 01:57:53;;;;;;;2.50;2.07;;;;;;;-145.14;100.00;70583.66;4993404;28;20455;-71
2022/03/08 02:00:30;;;;;;;2.30;2.10;;;;;;;-145.14;100.00;70583.66;4985787;28;20338;-71
2022/03/08 02:02:57;;;;;;;2.40;2.10;;;;;;;-145.14;100.00;70583.66;4995500;28;20471;-71
2022/03/08 02:05:23;;;;;;;5.13;2.83;;;;;;;-145.14;100.00;70583.66;4988554;28;20462;-70
2022/03/08 02:07:49;;;;;;;3.63;2.50;;;;;;;-145.14;100.00;70583.66;4991007;28;20513;-71
2022/03/08 02:10:14;;;;;;;3.43;2.40;;;;;;;-145.14;100.00;70583.66;4989535;28;20467;-71
2022/03/08 02:12:40;;;;;;;2.50;2.30;;;;;;;-145.14;100.00;70583.66;4989221;28;20185;-71
2022/03/08 02:15:21;;;;;;;2.50;2.27;;;;;;;-145.14;100.00;70583.66;4989713;28;20801;-71
2022/03/08 02:17:47;;;;;;;3.03;2.50;;;;;;;-145.14;100.00;70583.66;4992503;28;20251;-71
2022/03/08 02:20:13;;;;;;;2.63;2.10;;;;;;;-145.14;100.00;70583.66;4995075;28;20472;-72
2022/03/08 02:22:41;;;;;;;3.93;3.03;;;;;;;-145.14;100.00;70583.66;4990834;28;21367;-71
2022/03/08 02:25:06;;;;;;;3.63;2.57;;;;;;;-145.14;100.00;70583.66;4986726;28;20458;-71
2022/03/08 02:27:32;;;;;;;2.53;1.87;;;;;;;-145.14;100.00;70583.66;4989422;28;20451;-71
2022/03/08 02:29:59;;;;;;;3.47;2.50;;;;;;;-145.14;100.00;70583.66;4988975;28;20276;-71
2022/03/08 02:32:24;;;;;;;2.30;1.97;;;;;;;-145.14;100.00;70583.66;4993107;28;20185;-71
2022/03/08 02:34:49;;;;;;;3.40;2.20;;;;;;;-145.14;100.00;70583.66;4991665;28;20822;-71
2022/03/08 02:37:15;;;;;;;3.80;2.23;;;;;;;-145.14;100.00;70583.66;4994816;28;20193;-71
2022/03/08 02:39:40;;;;;;;2.30;2.10;;;;;;;-145.14;100.00;70583.66;4986352;28;20819;-71
2022/03/08 02:42:07;;;;;;;2.93;2.33;;;;;;;-145.14;100.00;70583.66;4988420;28;20244;-71
2022/03/08 02:44:33;;;;;;;3.13;2.10;;;;;;;-145.14;100.00;70583.66;4995583;28;20660;-71
2022/03/08 02:47:05;;;;;;;2.57;2.37;;;;;;;-145.14;100.00;70583.66;4989610;28;20505;-71
2022/03/08 02:49:31;;;;;;;2.50;2.30;;;;;;;-145.14;100.00;70583.66;4995413;23;20557;-69
2022/03/08 02:51:57;;;;;;;2.97;2.70;;;;;;;-145.14;100.00;70583.66;4999133;28;20436;-69
2022/03/08 02:54:23;;;;;;;3.43;2.77;;;;;;;-145.14;100.00;70583.66;4997540;28;20924;-69
2022/03/08 02:56:49;;;;;;;3.37;2.37;;;;;;;-145.14;100.00;70583.66;4994741;28;20674;-69
2022/03/08 02:59:21;;;;;;;3.80;2.60;;;;;;;-145.14;100.00;70583.66;4998393;28;20478;-69
2022/03/08 03:01:47;;;;;;;3.37;3.07;;;;;;;-145.14;100.00;70583.66;4988434;28;20340;-69
2022/03/08 03:04:13;;;;;;;3.07;2.70;;;;;;;-145.14;100.00;70583.66;4987246;28;20447;-69
2022/03/08 03:06:38;;;;;;;4.07;2.60;;;;;;;-145.14;100.00;70583.66;4987269;28;20189;-69
2022/03/08 03:09:04;;;;;;;2.50;2.20;;;;;;;-145.14;100.00;70583.66;4992293;28;20673;-69
2022/03/08 03:11:29;;;;;;;3.57;2.60;;;;;;;-145.14;100.00;70583.66;4988642;28;20182;-70
2022/03/08 03:13:55;;;;;;;3.07;2.87;;;;;;;-145.14;100.00;70583.66;4989079;28;20275;-69
2022/03/08 03:16:20;;;;;;;3.00;2.40;;;;;;;-145.14;100.00;70583.66;4990202;28;20669;-69
2022/03/08 03:18:45;;;;;;;3.93;2.40;;;;;;;-145.14;100.00;70583.66;4994043;28;20185;-69
2022/03/08 03:21:11;;;;;;;4.07;2.77;;;;;;;-145.14;100.00;70583.66;4992254;28;20186;-69
2022/03/08 03:23:36;;;;;;;5.23;3.00;;;;;;;-145.14;100.00;70583.66;4997109;28;20189;-69
2022/03/08 03:26:02;;;;;;;3.47;3.00;;;;;;;-145.14;100.00;70583.66;4987105;28;20247;-69
2022/03/08 03:28:27;;;;;;;3.13;2.90;;;;;;;-145.14;100.00;70583.66;4991078;28;20204;-70
2022/03/08 03:30:52;;;;;;;4.43;3.20;;;;;;;-145.14;100.00;70583.66;4989764;28;20200;-69
2022/03/08 03:33:18;;;;;;;3.40;2.80;;;;;;;-145.14;100.00;70583.66;4989636;28;20258;-69
2022/03/08 03:35:43;;;;;;;3.63;3.23;;;;;;;-145.14;100.00;70583.66;4991814;28;20192;-69
2022/03/08 03:38:09;;;;;;;4.13;3.73;;;;;;;-145.14;100.00;70583.66;4990087;28;20272;-70
2022/03/08 03:40:34;;;;;;;3.30;3.00;;;;;;;-145.14;100.00;70583.66;4993804;28;20201;-69
2022/03/08 03:43:00;;;;;;;4.80;3.90;;;;;;;-145.14;100.00;70583.66;4998299;28;25745;-69
2022/03/08 03:45:25;;;;;;;3.30;3.00;;;;;;;-145.14;100.00;70583.66;4999115;28;20193;-69
2022/03/08 03:47:50;;;;;;;5.37;3.23;;;;;;;-145.14;100.00;70583.66;4995603;28;20200;-69
2022/03/08 03:50:16;;;;;;;3.53;3.07;;;;;;;-145.14;100.00;70583.66;4997079;28;20213;-69
2022/03/08 03:52:41;;;;;;;5.97;3.30;;;;;;;-145.14;100.00;70583.66;5003008;28;20181;-69
2022/03/08 03:55:07;;;;;;;3.80;3.10;;;;;;;-145.14;100.00;70583.66;5000022;28;20189;-69
2022/03/08 03:57:33;;;;;;;3.50;3.20;;;;;;;-145.14;100.00;70583.66;4994563;28;20177;-69
2022/03/08 03:59:58;;;;;;;4.13;3.60;;;;;;;-145.14;100.00;70583.66;4995806;28;21007;-70
2022/03/08 04:02:24;;;;;;;3.67;3.37;;;;;;;-145.14;100.00;70583.66;4993643;28;20628;-70
2022/03/08 04:04:49;;;;;;;4.50;4.10;;;;;;;-145.14;100.00;70583.66;4988998;28;20316;-69
2022/03/08 04:07:14;;;;;;;4.93;3.80;;;;;;;-145.14;100.00;70583.66;4990604;28;20304;-69
2022/03/08 04:09:40;;;;;;;5.20;3.80;;;;;;;-145.14;100.00;70583.66;4991142;28;20674;-69
2022/03/08 04:12:06;;;;;;;4.83;4.20;;;;;;;-145.14;100.00;70583.66;4990586;28;20294;-69
2022/03/08 04:14:31;;;;;;;5.27;4.77;;;;;;;-145.14;100.00;70583.66;4991703;28;20247;-69
2022/03/08 04:16:57;;;;;;;7.57;4.63;;;;;;;-145.14;100.00;70583.66;4991228;28;20448;-69
2022/03/08 04:19:22;;;;;;;9.57;4.60;;;;;;;-145.14;100.00;70583.66;4987858;28;20206;-69
2022/03/08 04:21:48;;;;;;;5.20;3.83;;;;;;;-145.14;100.00;70583.66;4990517;28;20212;-70
2022/03/08 04:24:13;;;;;;;7.50;4.87;;;;;;;-145.14;100.00;70583.66;4994122;28;20185;-69
2022/03/08 04:26:39;;;;;;;5.30;4.30;;;;;;;-145.14;100.00;70583.66;4991343;28;20185;-69
2022/03/08 04:29:04;;;;;;;4.83;4.40;;;;;;;-145.14;100.00;70583.66;4991414;28;20228;-69
2022/03/08 04:31:30;;;;;;;8.30;4.73;;;;;;;-145.14;100.00;70583.66;4992172;28;20173;-69
2022/03/08 04:33:56;;;;;;;6.53;5.57;;;;;;;-145.14;100.00;70583.66;4987821;28;20747;-69
2022/03/08 04:36:22;;;;;;;7.87;6.10;;;;;;;-145.14;100.00;70583.66;4989687;28;20794;-70
2022/03/08 04:38:47;;;;;;;7.03;5.97;;;;;;;-145.14;100.00;70583.66;4988939;28;20990;-70
2022/03/08 04:41:13;;;;;;;8.17;5.27;;;;;;;-145.14;100.00;70583.66;4982863;28;20192;-70
2022/03/08 04:43:38;;;;;;;6.87;5.80;;;;;;;-145.14;100.00;70583.66;4992773;28;20196;-70
2022/03/08 04:46:03;;;;;;;6.60;5.80;;;;;;;-145.14;100.00;70583.66;4993130;28;20220;-70
2022/03/08 04:48:29;;;;;;;7.37;5.40;;;;;;;-145.14;100.00;70583.66;4995557;28;20268;-69
2022/03/08 04:50:54;;;;;;;7.43;6.13;;;;;;;-145.14;100.00;70583.66;4988352;28;20636;-70
2022/03/08 04:53:20;;;;;;;7.60;6.73;;;;;;;-145.14;100.00;70583.66;4985152;28;20178;-70
2022/03/08 04:55:45;;;;;;;6.30;5.70;;;;;;;-145.14;100.00;70583.66;4989721;28;20311;-70
2022/03/08 04:58:11;;;;;;;7.47;5.97;;;;;;;-145.14;100.00;70583.66;4989929;28;20235;-70
2022/03/08 05:00:36;;;;;;;8.83;6.43;;;;;;;-145.14;100.00;70583.66;4987505;28;20350;-70
2022/03/08 05:03:02;;;;;;;8.23;6.50;;;;;;;-145.14;100.00;70583.66;4995007;28;20951;-69
2022/03/08 05:05:29;;;;;;;9.03;5.67;;;;;;;-145.14;100.00;70583.66;4992697;28;20263;-70
2022/03/08 05:07:55;;;;;;;8.30;6.17;;;;;;;-145.14;100.00;70583.66;5001592;28;20182;-69
2022/03/08 05:10:20;;;;;;;8.10;6.10;;;;;;;-145.14;100.00;70583.66;4990432;28;20551;-69
2022/03/08 05:12:46;;;;;;;7.23;6.17;;;;;;;-145.14;100.00;70583.66;4990207;28;20188;-69
2022/03/08 05:15:12;;;;;;;9.27;6.33;;;;;;;-145.14;100.00;70583.66;4990378;28;20718;-69
2022/03/08 05:17:37;;;;;;;8.10;6.90;;;;;;;-145.14;100.00;70583.66;4990598;28;20621;-70
2022/03/08 05:20:04;;;;;;;7.50;6.70;;;;;;;-145.14;100.00;70583.66;4991670;28;20423;-70
2022/03/08 05:22:30;;;;;;;9.60;7.27;;;;;;;-145.14;100.00;70583.66;4987787;28;20217;-70
2022/03/08 05:24:56;;;;;;;13.13;7.70;;;;;;;-145.14;100.00;70583.66;4991331;28;20507;-70
2022/03/08 05:27:21;;;;;;;7.63;6.30;;;;;;;-145.14;100.00;70583.66;4991494;28;20193;-70
2022/03/08 05:29:47;;;;;;;8.03;7.03;;;;;;;-145.14;100.00;70583.66;4991295;28;20479;-70
2022/03/08 05:32:12;;;;;;;9.53;7.40;;;;;;;-145.14;100.00;70583.66;4984700;28;20271;-70
2022/03/08 05:34:38;;;;;;;9.80;7.20;;;;;;;-145.14;100.00;70583.66;4992675;28;20194;-70
2022/03/08 05:37:04;;;;;;;10.87;7.63;;;;;;;-145.14;100.00;70583.66;4991191;28;22074;-70
2022/03/08 05:39:29;;;;;;;8.67;7.17;;;;;;;-145.14;100.00;70583.66;4984706;28;20743;-69
2022/03/08 05:41:55;;;;;;;9.40;7.37;;;;;;;-145.14;100.00;70583.66;4989459;28;20471;-68
2022/03/08 05:44:20;;;;;;;8.67;7.27;;;;;;;-145.14;100.00;70583.66;4988642;28;20654;-68
2022/03/08 05:46:50;;;;;;;12.00;7.97;;;;;;;-145.14;100.00;70583.66;4985176;28;20193;-68
2022/03/08 05:49:16;;;;;;;11.10;7.67;;;;;;;-145.14;100.00;70583.66;4987145;28;20223;-68
2022/03/08 05:51:43;;;;;;;9.33;7.80;;;;;;;-145.14;100.00;70583.66;4986506;28;20484;-68
2022/03/08 05:54:09;;;;;;;8.40;7.47;;;;;;;-145.14;100.00;70583.66;4985267;28;20506;-69
2022/03/08 05:56:34;;;;;;;9.50;7.43;;;;;;;-145.14;100.00;70583.66;4982671;28;20459;-69
2022/03/08 05:59:00;;;;;;;10.23;8.70;;;;;;;-145.14;100.00;70583.66;4989574;28;20463;-69
2022/03/08 06:01:25;;;;;;;10.03;8.07;;;;;;;-145.14;100.00;70583.66;4983332;28;20272;-69
2022/03/08 06:03:50;;;;;;;11.00;8.20;;;;;;;-145.14;100.00;70583.66;4987391;28;20308;-69
2022/03/08 06:06:16;;;;;;;14.30;7.93;;;;;;;-145.14;100.00;70583.66;4992491;28;20194;-69
2022/03/08 06:08:41;;;;;;;9.97;7.70;;;;;;;-145.14;100.00;70583.66;4989571;28;20196;-69
2022/03/08 06:11:07;;;;;;;13.50;8.37;;;;;;;-145.14;100.00;70583.66;4990231;28;20263;-69
2022/03/08 06:13:32;;;;;;;11.50;8.97;;;;;;;-145.14;100.00;70583.66;4989262;28;20246;-69
2022/03/08 06:15:58;;;;;;;10.40;8.13;;;;;;;-145.14;100.00;70583.66;4985476;28;20267;-68
2022/03/08 06:18:23;;;;;;;9.97;7.90;;;;;;;-145.14;100.00;70583.66;4992569;28;20189;-68
2022/03/08 06:20:48;;;;;;;11.30;9.40;;;;;;;-145.14;100.00;70583.66;4988793;28;20266;-69
2022/03/08 06:23:14;;;;;;;10.10;7.47;;;;;;;-145.14;100.00;70583.66;4992366;28;20201;-69
2022/03/08 06:25:40;;;;;;;11.67;9.30;;;;;;;-145.14;100.00;70583.66;4993250;28;20672;-69
2022/03/08 06:28:06;;;;;;;10.63;8.37;;;;;;;-145.14;100.00;70583.66;4998053;28;20654;-69
2022/03/08 06:30:32;;;;;;;10.87;8.60;;;;;;;-145.14;100.00;70583.66;4993936;28;20200;-69
2022/03/08 06:32:57;;;;;;;11.20;9.00;;;;;;;-145.14;100.00;70583.66;4988880;28;20944;-69
2022/03/08 06:35:22;;;;;;;12.60;9.40;;;;;;;-145.14;100.00;70583.66;4984336;28;20459;-69
2022/03/08 06:37:48;;;;;;;10.70;8.50;;;;;;;-145.14;100.00;70583.66;4992149;28;20240;-69
2022/03/08 06:40:13;;;;;;;15.63;8.70;;;;;;;-145.14;100.00;70583.66;4985553;28;20406;-69
2022/03/08 06:42:39;;;;;;;11.60;8.40;;;;;;;-145.14;100.00;70583.66;4992798;28;20209;-69
2022/03/08 06:45:06;;;;;;;10.20;8.97;;;;;;;-145.14;100.00;70583.66;4990733;28;20686;-69
2022/03/08 06:47:32;;;;;;;11.63;7.83;;;;;;;-145.14;100.00;70583.66;4992050;28;20545;-69
2022/03/08 06:49:58;;;;;;;9.33;8.10;;;;;;;-145.14;100.00;70583.66;4990504;28;20974;-69
2022/03/08 06:52:24;;;;;;;11.47;8.63;;;;;;;-145.14;100.00;70583.66;4991913;28;20431;-69
2022/03/08 06:54:49;;;;;;;14.20;8.97;;;;;;;-145.14;100.00;70583.66;4987231;28;20339;-69
2022/03/08 06:57:15;;;;;;;9.07;8.10;;;;;;;-145.14;100.00;70583.66;4988652;28;20532;-68
2022/03/08 06:59:40;;;;;;;9.87;8.70;;;;;;;-145.14;100.00;70583.66;4987962;28;20296;-69
2022/03/08 07:02:06;;;;;;;13.57;8.30;;;;;;;-145.14;100.00;70583.66;4990038;28;20217;-69
2022/03/08 07:04:32;;;;;;;9.60;8.17;;;;;;;-145.14;100.00;70583.66;4991882;28;20198;-69
2022/03/08 07:06:57;;;;;;;9.50;8.30;;;;;;;-145.14;100.00;70583.66;4989790;28;20235;-68
2022/03/08 07:09:23;;;;;;;12.27;8.47;;;;;;;-145.14;100.00;70583.66;4985880;28;20223;-69
2022/03/08 07:11:49;;;;;;;12.90;9.47;;;;;;;-145.14;100.00;70583.66;4988634;28;20189;-69
2022/03/08 07:14:15;;;;;;;12.30;9.40;;;;;;;-145.14;100.00;70583.66;4993279;28;20458;-69
2022/03/08 07:16:45;;;;;;;15.60;8.50;;;;;;;-145.14;100.00;70583.66;4993940;28;20199;-68
2022/03/08 07:19:12;;;;;;;13.80;9.87;;;;;;;-145.14;100.00;70583.66;4993594;28;20566;-69
2022/03/08 07:21:38;;;;;;;12.57;8.50;;;;;;;-145.14;100.00;70583.66;4992278;28;20471;-69
2022/03/08 07:24:04;;;;;;;14.33;9.20;;;;;;;-145.14;100.00;70583.66;4994228;28;20440;-69
2022/03/08 07:26:29;;;;;;;13.93;9.90;;;;;;;-145.14;100.00;70583.66;4992565;28;20186;-69
2022/03/08 07:28:55;;;;;;;13.43;8.83;;;;;;;-145.14;100.00;70583.66;4993513;28;20498;-68
2022/03/08 07:31:20;;;;;;;13.73;10.30;;;;;;;-145.14;100.00;70583.66;4984595;28;20199;-69
2022/03/08 07:33:46;;;;;;;15.33;10.33;;;;;;;-145.14;100.00;70583.66;4981981;28;20264;-69
2022/03/08 07:36:11;;;;;;;10.70;8.27;;;;;;;-145.14;100.00;70583.66;4999175;28;20225;-69
2022/03/08 07:38:37;;;;;;;11.13;8.30;;;;;;;-145.14;100.00;70583.66;4988442;28;20289;-68
2022/03/08 07:41:06;;;;;;;12.10;8.73;;;;;;;-145.14;100.00;70583.66;4988004;28;20496;-69
2022/03/08 07:43:32;;;;;;;10.60;9.33;;;;;;;-145.14;100.00;70583.66;4991552;28;20213;-69
2022/03/08 07:45:58;;;;;;;12.87;9.40;;;;;;;-145.14;100.00;70583.66;4990546;28;20538;-68
2022/03/08 07:48:23;;;;;;;13.23;10.07;;;;;;;-145.14;100.00;70583.66;4987842;28;20538;-69
2022/03/08 07:50:49;;;;;;;14.90;10.27;;;;;;;-145.14;100.00;70583.66;4991900;28;20662;-69
2022/03/08 07:53:14;;;;;;;12.43;9.73;;;;;;;-145.14;100.00;70583.66;4994119;28;20274;-68
2022/03/08 07:55:39;;;;;;;15.27;11.43;;;;;;;-145.14;100.00;70583.66;4988274;28;20665;-68
2022/03/08 07:58:05;;;;;;;15.10;9.83;;;;;;;-145.14;100.00;70583.66;4990591;28;20283;-68
2022/03/08 08:00:32;;;;;;;12.37;10.03;;;;;;;-145.14;100.00;70583.66;4993576;28;20657;-69
2022/03/08 08:02:59;;;;;;;13.00;9.53;;;;;;;-145.14;100.00;70583.66;4994467;28;20239;-68
2022/03/08 08:05:25;;;;;;;14.43;10.30;;;;;;;-145.14;100.00;70583.66;4992481;28;20502;-68
2022/03/08 08:07:50;;;;;;;13.67;10.00;;;;;;;-145.14;100.00;70583.66;4992518;28;20974;-69
2022/03/08 08:10:16;;;;;;;12.93;10.20;;;;;;;-145.14;100.00;70583.66;4994889;28;20309;-69
2022/03/08 08:12:41;;;;;;;18.23;10.67;;;;;;;-145.14;100.00;70583.66;4988950;28;20196;-68
2022/03/08 08:15:08;;;;;;;15.27;10.40;;;;;;;-145.14;100.00;70583.66;4994439;28;20197;-68
2022/03/08 08:17:34;;;;;;;13.40;10.10;;;;;;;-145.14;100.00;70583.66;4991009;28;20196;-69
2022/03/08 08:19:59;;;;;;;12.47;10.10;;;;;;;-145.14;100.00;70583.66;4995923;28;20459;-69
2022/03/08 08:22:25;;;;;;;15.87;10.27;;;;;;;-145.14;100.00;70583.66;4995366;28;20212;-69
2022/03/08 08:24:51;;;;;;;14.03;10.63;;;;;;;-145.14;100.00;70583.66;4994072;28;20197;-69
2022/03/08 08:27:17;;;;;;;14.10;10.73;;;;;;;-145.14;100.00;70583.66;4988823;28;20551;-69
2022/03/08 08:29:42;;;;;;;13.83;10.40;;;;;;;-145.14;100.00;70583.66;4993559;28;20302;-69
2022/03/08 08:32:08;;;;;;;16.40;10.13;;;;;;;-145.14;100.00;70583.66;4994501;28;20494;-69
2022/03/08 08:34:34;;;;;;;15.40;9.97;;;;;;;-145.14;100.00;70583.66;4990479;28;20550;-69
2022/03/08 08:36:59;;;;;;;12.27;10.30;;;;;;;-145.14;100.00;70583.66;4994227;28;20447;-69
2022/03/08 08:39:25;;;;;;;16.43;11.10;;;;;;;-145.14;100.00;70583.66;4992290;28;20225;-69
2022/03/08 08:41:51;;;;;;;12.23;10.27;;;;;;;-145.14;100.00;70583.66;4994641;28;20248;-70
2022/03/08 08:44:17;;;;;;;12.40;10.53;;;;;;;-145.14;100.00;70583.66;4993778;28;20220;-69
2022/03/08 08:46:42;;;;;;;18.03;10.73;;;;;;;-145.14;100.00;70583.66;4991148;28;20585;-69
2022/03/08 08:49:08;;;;;;;15.70;10.20;;;;;;;-145.14;100.00;70583.66;4989653;28;20474;-70
2022/03/08 08:51:34;;;;;;;12.97;10.60;;;;;;;-145.14;100.00;70583.66;4991765;28;20190;-70
2022/03/08 08:54:00;;;;;;;14.50;11.37;;;;;;;-145.14;100.00;70583.66;4991512;28;20733;-69
2022/03/08 08:56:26;;;;;;;13.17;10.70;;;;;;;-145.14;100.00;70583.66;4995434;28;20455;-70
2022/03/08 08:58:52;;;;;;;15.37;10.80;;;;;;;-145.14;100.00;70583.66;4993586;28;20455;-70
2022/03/08 09:01:18;;;;;;;14.03;10.90;;;;;;;-145.14;100.00;70583.66;4992461;28;20451;-70
2022/03/08 09:03:43;;;;;;;12.43;9.20;;;;;;;-145.14;100.00;70583.66;4990303;28;20614;-70
2022/03/08 09:06:09;;;;;;;13.57;10.30;;;;;;;-145.14;100.00;70583.66;4993135;28;20450;-70
2022/03/08 09:08:35;;;;;;;13.87;9.57;;;;;;;-145.14;100.00;70583.66;4983812;28;20769;-70
2022/03/08 09:11:00;;;;;;;10.70;9.20;;;;;;;-145.14;100.00;70583.66;4987837;28;20213;-70
2022/03/08 09:13:26;;;;;;;12.70;8.87;;;;;;;-145.14;100.00;70583.66;4990693;28;20916;-70
2022/03/08 09:15:51;;;;;;;11.70;8.40;;;;;;;-145.14;100.00;70583.66;4992950;28;20570;-70
2022/03/08 09:18:20;;;;;;;10.00;8.30;;;;;;;-145.14;100.00;70583.66;4984587;28;20251;-70
2022/03/08 09:20:45;;;;;;;10.73;8.00;;;;;;;-145.14;100.00;70583.66;4989414;28;20455;-70
2022/03/08 09:23:11;;;;;;;9.93;8.33;;;;;;;-145.14;100.00;70583.66;4990370;28;20508;-70
2022/03/08 09:25:37;;;;;;;10.50;8.17;;;;;;;-145.14;100.00;70583.66;4988383;28;21020;-70
2022/03/08 09:28:05;;;;;;;9.53;8.20;;;;;;;-145.14;100.00;70583.66;4990496;28;20911;-70
2022/03/08 09:30:31;;;;;;;11.07;7.77;;;;;;;-145.14;100.00;70583.66;4989583;28;20228;-69
2022/03/08 09:32:59;;;;;;;9.47;7.27;;;;;;;-145.14;100.00;70583.66;4990367;28;20585;-69
2022/03/08 09:35:26;;;;;;;7.67;6.60;;;;;;;-145.14;100.00;70583.66;4989597;28;20440;-70
2022/03/08 09:37:52;;;;;;;13.10;7.80;;;;;;;-145.14;100.00;70583.66;4990116;28;20444;-69
2022/03/08 09:40:17;;;;;;;11.90;6.90;;;;;;;-145.14;100.00;70583.66;4985958;28;20464;-70
2022/03/08 09:42:43;;;;;;;9.50;6.83;;;;;;;-145.14;100.00;70583.66;4987789;28;20483;-69
2022/03/08 09:45:08;;;;;;;8.53;7.10;;;;;;;-145.14;100.00;70583.66;4992224;28;20636;-70
2022/03/08 09:47:34;;;;;;;11.10;7.00;;;;;;;-145.14;100.00;70583.66;4990111;28;20196;-70
2022/03/08 09:50:00;;;;;;;8.53;6.30;;;;;;;-145.14;100.00;70583.66;4985179;28;20789;-69
2022/03/08 09:52:26;;;;;;;8.10;6.80;;;;;;;-145.14;100.00;70583.66;4989315;28;20432;-69
2022/03/08 09:54:51;;;;;;;6.50;5.73;;;;;;;-145.14;100.00;70583.66;4990627;28;20475;-70
2022/03/08 09:57:18;;;;;;;8.97;6.53;;;;;;;-145.14;100.00;70583.66;4992706;28;20181;-70
2022/03/08 09:59:44;;;;;;;8.00;5.80;;;;;;;-145.14;100.00;70583.66;4989376;28;20209;-69
2022/03/08 10:02:14;;;;;;;13.10;7.10;;;;;;;-145.14;100.00;70583.66;4986403;28;21388;-70
2022/03/08 10:04:40;;;;;;;6.90;5.53;;;;;;;-145.14;100.00;70583.66;4985553;28;20446;-69
2022/03/08 10:07:11;;;;;;;13.13;6.27;;;;;;;-145.14;100.00;70583.66;5000428;28;21020;-70
2022/03/08 10:09:37;;;;;;;6.67;5.97;;;;;;;-145.14;100.00;70583.66;4985773;28;20472;-69
2022/03/08 10:12:14;;;;;;;10.40;6.00;;;;;;;-145.14;100.00;70583.66;4986907;28;20497;-70
2022/03/08 10:14:39;;;;;;;6.87;5.90;;;;;;;-145.14;100.00;70583.66;4989524;28;20191;-69
2022/03/08 10:17:29;;;;;;;7.33;4.77;;;;;;;-145.14;100.00;70583.66;4988484;28;20447;-70
2022/03/08 10:19:54;;;;;;;5.43;4.87;;;;;;;-145.14;100.00;70583.66;4987307;28;20267;-69
2022/03/08 10:22:29;;;;;;;6.77;5.63;;;;;;;-145.14;100.00;70583.66;4990049;28;20463;-70
2022/03/08 10:25:10;;;;;;;5.93;5.37;;;;;;;-145.14;100.00;70583.66;4991432;28;20244;-70
2022/03/08 10:27:36;;;;;;;5.13;4.60;;;;;;;-145.14;100.00;70583.66;4991102;28;20925;-70
2022/03/08 10:30:04;;;;;;;4.97;4.43;;;;;;;-145.14;100.00;70583.66;4987567;28;20482;-70
2022/03/08 10:32:36;;;;;;;5.73;4.73;;;;;;;-145.14;100.00;70583.66;4988613;28;20193;-70
2022/03/08 10:35:02;;;;;;;6.10;4.40;;;;;;;-145.14;100.00;70583.66;4987631;28;20479;-69
2022/03/08 10:37:35;;;;;;;7.97;5.10;;;;;;;-145.14;100.00;70583.66;4985883;28;20491;-70
2022/03/08 10:40:09;;;;;;;5.50;4.07;;;;;;;-145.14;100.00;70583.66;4981935;28;25109;-69
2022/03/08 10:42:38;;;;;;;7.33;4.47;;;;;;;-145.14;100.00;70583.66;4988819;28;20468;-69
2022/03/08 10:45:06;;;;;;;5.47;4.20;;;;;;;-145.14;100.00;70583.66;4986387;28;20444;-69
2022/03/08 10:47:46;;;;;;;5.10;3.73;;;;;;;-145.14;100.00;70583.66;4986052;28;20448;-69
2022/03/08 10:50:17;;;;;;;6.23;3.70;;;;;;;-145.14;100.00;70583.66;4986952;28;20506;-70
2022/03/08 10:52:46;;;;;;;5.07;3.60;;;;;;;-145.14;100.00;70583.66;4988385;28;20816;-70
2022/03/08 10:55:19;;;;;;;4.70;3.60;;;;;;;-145.14;100.00;70583.66;4987721;28;20601;-70
2022/03/08 10:57:53;;;;;;;5.30;3.40;;;;;;;-145.14;100.00;70583.66;4989988;28;20528;-69
2022/03/08 11:00:24;;;;;;;8.60;4.30;;;;;;;-145.14;100.00;70583.66;4990278;28;20970;-70
2022/03/08 11:02:58;;;;;;;4.93;3.90;;;;;;;-145.14;100.00;70583.66;4991666;28;20511;-69